METAR Formatted Surface Weather Observation
Issued by NWS

Home | Current Version | Previous Version | Text Only | Print | Product List | Glossary On
Versions: 1 2 3 4 5 6 7 8 9 10 11 12 13 14 15 16 17 18
000
SPZS31 NSTU 260403
MTRSPP
SPECI NSTU 260403Z VRB06KT 12SM FEW015CB SCT040 BKN110 28/26 A2984
RMK TSE03 CB DSNT N-E-SE=



USA.gov is the U.S. government's official web portal to all federal, state and local government web resources and services.